createdAt,value
2022-08-30T00:01:03.073Z,74.65
2022-08-30T00:03:35.132Z,73.39
2022-08-30T00:06:01.711Z,73.57
2022-08-30T00:08:28.847Z,74.84
2022-08-30T00:10:55.530Z,74.43
2022-08-30T00:13:22.657Z,74.98
2022-08-30T00:15:49.504Z,75.71
2022-08-30T00:18:18.352Z,75.49
2022-08-30T00:20:46.331Z,75.46
2022-08-30T00:23:13.759Z,75.69
2022-08-30T00:25:40.523Z,75.51
2022-08-30T00:28:10.004Z,75.84
2022-08-30T00:30:38.040Z,74.93
2022-08-30T00:33:06.567Z,75.96
2022-08-30T00:35:33.587Z,74.81
2022-08-30T00:38:00.156Z,75.24
2022-08-30T00:40:28.156Z,76.48
2022-08-30T00:42:59.293Z,76.46
2022-08-30T00:45:30.947Z,75.84
2022-08-30T00:47:58.087Z,76.50
2022-08-30T00:50:28.926Z,76.74
2022-08-30T00:53:00.010Z,77.70
2022-08-30T00:55:27.940Z,77.75
2022-08-30T00:57:59.721Z,77.97
2022-08-30T01:00:28.505Z,78.01
2022-08-30T01:02:55.215Z,77.80
2022-08-30T01:05:22.546Z,77.13
2022-08-30T01:07:49.306Z,77.49
2022-08-30T01:10:17.612Z,77.38
2022-08-30T01:12:44.952Z,78.21
2022-08-30T01:15:14.478Z,78.00
2022-08-30T01:17:47.728Z,78.09
2022-08-30T01:20:24.612Z,78.48
2022-08-30T01:22:51.187Z,78.49
2022-08-30T01:25:23.352Z,78.21
2022-08-30T01:28:06.830Z,78.38
2022-08-30T01:30:33.742Z,78.63
2022-08-30T01:33:04.083Z,78.81
2022-08-30T01:35:46.099Z,79.14
2022-08-30T01:38:14.187Z,78.75
2022-08-30T01:40:40.813Z,78.61
2022-08-30T01:43:08.154Z,78.97
2022-08-30T01:45:34.612Z,78.28
2022-08-30T01:48:02.637Z,76.85
2022-08-30T01:50:30.492Z,78.21
2022-08-30T01:52:57.003Z,78.32
2022-08-30T01:55:23.635Z,78.59
2022-08-30T01:57:50.178Z,79.02
2022-08-30T02:00:17.595Z,78.07
2022-08-30T02:02:44.425Z,78.88
2022-08-30T02:05:11.767Z,79.72
2022-08-30T02:07:38.204Z,79.94
2022-08-30T02:10:05.505Z,80.22
2022-08-30T02:12:32.551Z,80.32
2022-08-30T02:14:59.054Z,80.86
2022-08-30T02:17:25.968Z,80.38
2022-08-30T02:19:52.628Z,79.95
2022-08-30T02:22:20.979Z,78.83
2022-08-30T02:24:47.485Z,79.54
2022-08-30T02:27:13.993Z,80.23
2022-08-30T02:29:40.570Z,79.25
2022-08-30T02:32:06.998Z,80.33
2022-08-30T02:34:33.536Z,79.71
2022-08-30T02:37:00.956Z,80.43
2022-08-30T02:39:27.418Z,80.19
2022-08-30T02:41:53.958Z,80.09
2022-08-30T02:44:20.395Z,81.60
2022-08-30T02:46:48.083Z,81.55
2022-08-30T02:52:03.987Z,79.70
2022-08-30T02:54:33.062Z,80.91
2022-08-30T02:57:04.587Z,80.93
2022-08-30T02:59:31.596Z,80.70
2022-08-30T03:01:58.312Z,81.48
2022-08-30T03:04:26.533Z,81.44
2022-08-30T03:06:53.796Z,81.25
2022-08-30T03:09:20.262Z,81.75
2022-08-30T03:11:46.758Z,82.26
2022-08-30T03:14:13.225Z,82.76
2022-08-30T03:16:39.796Z,82.43
2022-08-30T03:19:06.325Z,82.74
2022-08-30T03:21:32.814Z,81.95
2022-08-30T03:23:59.252Z,82.14
2022-08-30T03:26:25.711Z,82.37
2022-08-30T03:28:52.150Z,82.26
2022-08-30T03:31:18.645Z,82.56
2022-08-30T03:33:45.132Z,82.31
2022-08-30T03:36:12.052Z,82.81
2022-08-30T03:38:38.918Z,82.20
2022-08-30T03:41:05.959Z,81.99
2022-08-30T03:43:34.515Z,82.75
2022-08-30T03:46:02.317Z,82.36
2022-08-30T03:48:29.447Z,83.59
2022-08-30T03:50:56.115Z,84.19
2022-08-30T03:53:25.683Z,83.89
2022-08-30T03:55:53.938Z,84.13
2022-08-30T03:58:22.224Z,83.99
2022-08-30T04:00:49.395Z,83.29
2022-08-30T04:03:16.037Z,84.23
2022-08-30T04:05:42.641Z,83.42
2022-08-30T04:08:09.062Z,82.54
2022-08-30T04:10:35.720Z,82.87
2022-08-30T04:13:02.188Z,83.76
2022-08-30T04:15:28.775Z,83.82
2022-08-30T04:17:55.278Z,84.26
2022-08-30T04:20:21.759Z,84.11
2022-08-30T04:22:48.248Z,84.09
2022-08-30T04:25:15.545Z,84.31
2022-08-30T04:27:42.940Z,84.16
2022-08-30T04:30:10.029Z,84.19
2022-08-30T04:32:36.468Z,83.90
2022-08-30T04:35:03.012Z,84.01
2022-08-30T04:37:29.451Z,84.71
2022-08-30T04:40:00.769Z,84.45
2022-08-30T04:42:31.283Z,83.78
2022-08-30T04:44:58.713Z,84.21
2022-08-30T04:47:25.143Z,83.81
2022-08-30T04:49:52.754Z,83.84
2022-08-30T04:52:19.367Z,83.97
2022-08-30T04:54:45.830Z,83.41
2022-08-30T04:57:12.328Z,83.96
2022-08-30T04:59:39.460Z,83.64
2022-08-30T05:02:05.954Z,83.56
2022-08-30T05:04:32.384Z,83.72
2022-08-30T05:06:58.869Z,82.99
2022-08-30T05:09:25.262Z,82.83
2022-08-30T05:11:51.735Z,82.36
2022-08-30T05:14:18.175Z,81.41
2022-08-30T05:16:45.554Z,79.48
2022-08-30T05:19:12.039Z,77.70
2022-08-30T05:21:40.648Z,74.49
2022-08-30T05:24:08.103Z,73.36
2022-08-30T05:26:37.855Z,70.70
2022-08-30T05:29:04.461Z,69.55
2022-08-30T05:31:34.324Z,67.58
2022-08-30T05:34:01.318Z,66.57
2022-08-30T05:36:34.528Z,64.56
2022-08-30T05:39:01.329Z,64.02
2022-08-30T05:41:28.141Z,64.01
2022-08-30T05:43:57.324Z,62.74
2022-08-30T05:46:24.911Z,61.86
2022-08-30T05:48:51.923Z,59.82
2022-08-30T05:51:24.329Z,59.96
2022-08-30T05:53:52.425Z,59.10
2022-08-30T05:56:25.242Z,58.30
2022-08-30T05:58:52.997Z,57.13
2022-08-30T06:01:27.227Z,54.92
2022-08-30T06:03:55.006Z,55.26
2022-08-30T06:06:21.955Z,53.40
2022-08-30T06:08:49.381Z,52.74
2022-08-30T06:11:19.822Z,50.90
2022-08-30T06:13:47.644Z,52.50
2022-08-30T06:16:15.342Z,51.37
2022-08-30T06:18:41.920Z,50.49
2022-08-30T06:21:12.198Z,51.49
2022-08-30T06:23:41.060Z,50.58
2022-08-30T06:26:08.024Z,48.46
2022-08-30T06:28:34.950Z,48.26
2022-08-30T06:31:01.606Z,47.05
2022-08-30T06:33:28.149Z,45.12
2022-08-30T06:35:58.268Z,44.80
2022-08-30T06:38:26.578Z,46.53
2022-08-30T06:40:53.015Z,46.86
2022-08-30T06:43:20.810Z,48.76
2022-08-30T06:45:47.247Z,47.84
2022-08-30T06:48:13.791Z,46.83
2022-08-30T06:50:42.094Z,49.12
2022-08-30T06:53:09.518Z,47.01
2022-08-30T06:55:36.649Z,46.99
2022-08-30T06:58:04.691Z,46.13
2022-08-30T07:00:31.175Z,45.33
2022-08-30T07:02:58.239Z,43.38
2022-08-30T07:05:24.754Z,44.39
2022-08-30T07:07:54.562Z,43.17
2022-08-30T07:10:21.544Z,44.55
2022-08-30T07:12:48.896Z,43.46
2022-08-30T07:15:16.387Z,41.76
2022-08-30T07:18:01.603Z,41.47
2022-08-30T07:20:28.092Z,40.73
2022-08-30T07:23:06.719Z,40.93
2022-08-30T07:25:33.283Z,41.25
2022-08-30T07:27:59.777Z,41.52
2022-08-30T07:30:26.237Z,43.85
2022-08-30T07:32:52.685Z,42.06
2022-08-30T07:35:19.099Z,41.03
2022-08-30T07:37:45.654Z,39.38
2022-08-30T07:40:12.656Z,40.66
2022-08-30T07:42:40.943Z,39.55
2022-08-30T07:45:08.939Z,39.47
2022-08-30T07:47:35.780Z,37.84
2022-08-30T07:50:03.665Z,40.01
2022-08-30T07:52:30.919Z,39.94
2022-08-30T07:54:58.915Z,39.13
2022-08-30T07:57:25.673Z,40.28
2022-08-30T07:59:52.684Z,36.87
2022-08-30T08:02:19.481Z,37.62
2022-08-30T08:04:46.764Z,39.41
2022-08-30T08:07:13.220Z,38.34
2022-08-30T08:09:39.671Z,36.89
2022-08-30T08:12:07.214Z,36.94
2022-08-30T08:14:34.610Z,35.64
2022-08-30T08:17:01.195Z,37.55
2022-08-30T08:19:27.923Z,36.24
2022-08-30T08:22:19.576Z,35.75
2022-08-30T08:24:43.315Z,37.19
2022-08-30T08:27:09.889Z,35.92
2022-08-30T08:29:39.521Z,34.98
2022-08-30T08:32:06.040Z,36.39
2022-08-30T08:34:32.762Z,35.98
2022-08-30T08:36:59.796Z,35.41
2022-08-30T08:39:26.806Z,36.36
2022-08-30T08:42:19.680Z,34.26
2022-08-30T08:44:59.010Z,36.10
2022-08-30T08:47:41.544Z,34.16
2022-08-30T08:50:17.334Z,33.83
2022-08-30T08:53:13.363Z,34.54
2022-08-30T08:55:50.730Z,34.40
2022-08-30T08:58:26.608Z,36.85
2022-08-30T09:00:56.535Z,33.43
2022-08-30T09:03:26.387Z,33.82
2022-08-30T09:05:54.830Z,34.12
2022-08-30T09:08:23.679Z,34.93
2022-08-30T09:11:03.609Z,33.23
2022-08-30T09:13:30.342Z,33.87
2022-08-30T09:15:59.499Z,32.39
2022-08-30T09:18:52.578Z,33.94
2022-08-30T09:21:26.600Z,33.25
2022-08-30T09:23:59.527Z,33.17
2022-08-30T09:26:32.681Z,31.63
2022-08-30T09:29:00.961Z,32.19
2022-08-30T09:31:31.081Z,32.70
2022-08-30T09:34:06.129Z,34.11
2022-08-30T09:36:42.268Z,35.25
2022-08-30T09:39:19.292Z,32.91
2022-08-30T09:41:49.911Z,33.61
2022-08-30T09:44:28.115Z,34.04
2022-08-30T09:47:00.368Z,34.47
2022-08-30T09:49:31.934Z,33.19
2022-08-30T09:52:04.528Z,33.46
2022-08-30T09:54:41.331Z,33.62
2022-08-30T09:57:33.911Z,34.66
2022-08-30T10:00:18.540Z,33.81
2022-08-30T10:03:00.915Z,32.84
2022-08-30T10:05:49.428Z,34.27
2022-08-30T10:08:35.361Z,31.62
2022-08-30T10:11:22.958Z,31.61
2022-08-30T10:14:20.935Z,33.39
2022-08-30T10:17:06.990Z,32.42
2022-08-30T10:19:52.960Z,31.62
2022-08-30T10:22:28.876Z,32.74
2022-08-30T10:25:10.587Z,32.07
2022-08-30T10:27:46.494Z,31.39
2022-08-30T10:30:14.945Z,30.42
2022-08-30T10:33:02.040Z,32.31
2022-08-30T10:35:38.711Z,32.51
2022-08-30T10:38:12.176Z,30.90
2022-08-30T10:41:05.486Z,31.54
2022-08-30T10:44:02.743Z,30.91
2022-08-30T10:46:47.999Z,30.55
2022-08-30T10:49:19.852Z,30.40
2022-08-30T10:51:50.708Z,29.29
2022-08-30T10:54:31.947Z,29.46
2022-08-30T10:57:00.590Z,28.53
2022-08-30T10:59:28.581Z,27.74
2022-08-30T11:02:34.591Z,28.71
2022-08-30T11:05:23.033Z,29.30
2022-08-30T11:08:22.076Z,28.20
2022-08-30T11:10:52.291Z,28.97
2022-08-30T11:13:29.697Z,28.95
2022-08-30T11:16:07.505Z,30.09
2022-08-30T11:18:52.579Z,30.30
2022-08-30T11:21:19.273Z,29.94
2022-08-30T11:24:11.066Z,29.98
2022-08-30T11:26:48.616Z,31.17
2022-08-30T11:29:30.918Z,31.75
2022-08-30T11:32:44.488Z,30.93
2022-08-30T11:35:47.364Z,32.50
2022-08-30T11:38:14.999Z,31.47
2022-08-30T11:40:58.917Z,30.61
2022-08-30T11:43:34.695Z,30.98
2022-08-30T11:46:42.409Z,30.71
2022-08-30T11:49:15.060Z,31.53
2022-08-30T11:55:18.945Z,29.92
2022-08-30T11:58:19.650Z,30.78
2022-08-30T12:00:52.555Z,29.82
2022-08-30T12:03:19.618Z,32.24
2022-08-30T12:05:51.652Z,31.22
2022-08-30T12:08:21.316Z,30.57
2022-08-30T12:11:00.213Z,30.50
2022-08-30T12:13:42.649Z,30.37
2022-08-30T12:16:22.429Z,30.30
2022-08-30T12:18:52.731Z,30.08
2022-08-30T12:21:22.045Z,30.10
2022-08-30T12:24:07.740Z,30.88
2022-08-30T12:26:46.463Z,30.53
2022-08-30T12:29:16.605Z,30.55
2022-08-30T12:31:53.778Z,30.16
2022-08-30T12:34:37.172Z,30.22
2022-08-30T12:37:08.461Z,30.37
2022-08-30T12:39:40.630Z,30.48
2022-08-30T12:42:27.057Z,30.61
2022-08-30T12:44:57.847Z,30.43
2022-08-30T12:47:45.277Z,30.82
2022-08-30T12:50:17.092Z,30.69
2022-08-30T12:52:46.961Z,30.68
2022-08-30T12:55:24.929Z,31.13
2022-08-30T12:58:00.556Z,30.94
2022-08-30T13:00:32.174Z,30.84
2022-08-30T13:03:16.063Z,31.05
2022-08-30T13:05:52.786Z,31.34
2022-08-30T13:08:35.772Z,31.67
2022-08-30T13:11:11.050Z,31.77
2022-08-30T13:13:52.022Z,31.89
2022-08-30T13:16:22.438Z,32.24
2022-08-30T13:18:51.895Z,31.94
2022-08-30T13:21:34.943Z,31.61
2022-08-30T13:24:04.634Z,32.00
2022-08-30T13:26:35.260Z,32.56
2022-08-30T13:29:10.301Z,32.09
2022-08-30T13:31:37.548Z,32.19
2022-08-30T13:34:05.057Z,32.42
2022-08-30T13:36:35.489Z,31.46
2022-08-30T13:39:03.821Z,32.25
2022-08-30T13:41:33.815Z,32.20
2022-08-30T13:44:16.899Z,32.43
2022-08-30T13:46:54.475Z,31.54
2022-08-30T13:49:46.365Z,31.63
2022-08-30T13:52:20.915Z,32.35
2022-08-30T13:54:51.942Z,32.05
2022-08-30T14:00:20.044Z,32.24
2022-08-30T14:02:54.911Z,31.69
2022-08-30T14:05:49.230Z,31.96
2022-08-30T14:11:13.415Z,31.23
2022-08-30T14:16:31.251Z,31.46
2022-08-30T14:18:58.489Z,30.21
2022-08-30T14:21:26.252Z,30.49
2022-08-30T14:23:53.832Z,29.88
2022-08-30T14:26:32.356Z,30.76
2022-08-30T14:28:59.904Z,31.11
2022-08-30T14:31:26.519Z,31.53
2022-08-30T14:33:53.006Z,30.91
2022-08-30T14:36:19.681Z,31.15
2022-08-30T14:38:48.581Z,31.85
2022-08-30T14:41:15.396Z,31.66
2022-08-30T14:43:41.910Z,31.87
2022-08-30T14:46:10.230Z,31.87
2022-08-30T14:48:38.481Z,30.93
2022-08-30T14:51:16.952Z,31.12
2022-08-30T14:53:44.638Z,31.14
2022-08-30T14:56:15.802Z,31.42
2022-08-30T14:58:43.256Z,31.34
2022-08-30T15:01:12.469Z,31.70
2022-08-30T15:03:40.361Z,31.20
2022-08-30T15:06:07.405Z,31.78
2022-08-30T15:08:36.342Z,31.90
2022-08-30T15:11:11.646Z,31.73
2022-08-30T15:13:38.619Z,31.23
2022-08-30T15:16:42.253Z,31.61
2022-08-30T15:19:10.848Z,31.55
2022-08-30T15:21:43.000Z,31.85
2022-08-30T15:24:13.056Z,31.43
2022-08-30T15:26:43.549Z,32.48
2022-08-30T15:29:12.166Z,32.19
2022-08-30T15:31:40.508Z,32.50
2022-08-30T15:34:08.672Z,32.44
2022-08-30T15:36:36.642Z,32.73
2022-08-30T15:39:04.380Z,32.60
2022-08-30T15:41:31.643Z,32.92
2022-08-30T15:43:58.950Z,32.91
2022-08-30T15:46:29.648Z,32.97
2022-08-30T15:49:01.491Z,32.57
2022-08-30T15:51:28.578Z,32.77
2022-08-30T15:53:57.528Z,32.81
2022-08-30T15:56:24.669Z,33.32
2022-08-30T15:58:53.138Z,33.67
2022-08-30T16:01:20.202Z,33.91
2022-08-30T16:03:57.045Z,33.45
2022-08-30T16:06:28.146Z,33.45
2022-08-30T16:08:55.387Z,33.93
2022-08-30T16:11:22.693Z,34.15
2022-08-30T16:13:50.782Z,34.34
2022-08-30T16:16:18.372Z,34.64
2022-08-30T16:18:45.541Z,35.21
2022-08-30T16:21:25.586Z,36.13
2022-08-30T16:23:55.402Z,36.02
2022-08-30T16:26:22.195Z,36.29
2022-08-30T16:28:48.825Z,36.04
2022-08-30T16:31:17.006Z,36.78
2022-08-30T16:33:44.853Z,36.79
2022-08-30T16:36:11.948Z,36.88
2022-08-30T16:38:39.116Z,37.22
2022-08-30T16:41:08.092Z,37.31
2022-08-30T16:43:35.664Z,37.55
2022-08-30T16:46:09.187Z,37.45
2022-08-30T16:48:37.923Z,37.56
2022-08-30T16:51:15.485Z,37.83
2022-08-30T16:53:43.337Z,38.47
2022-08-30T16:56:13.674Z,37.71
2022-08-30T16:58:40.429Z,37.33
2022-08-30T17:01:07.029Z,37.83
2022-08-30T17:03:37.247Z,37.98
2022-08-30T17:06:04.261Z,38.15
2022-08-30T17:08:31.535Z,38.41
2022-08-30T17:10:58.261Z,38.35
2022-08-30T17:13:24.847Z,38.10
2022-08-30T17:15:54.385Z,38.47
2022-08-30T17:18:20.966Z,38.88
2022-08-30T17:20:47.747Z,38.70
2022-08-30T17:23:14.843Z,39.08
2022-08-30T17:25:43.244Z,39.54
2022-08-30T17:28:10.627Z,39.62
2022-08-30T17:30:37.628Z,40.21
2022-08-30T17:33:04.256Z,39.92
2022-08-30T17:35:30.926Z,40.16
2022-08-30T17:38:00.713Z,40.09
2022-08-30T17:40:28.040Z,40.19
2022-08-30T17:42:54.719Z,40.20
2022-08-30T17:45:21.271Z,40.35
2022-08-30T17:47:48.662Z,41.41
2022-08-30T17:50:16.106Z,41.47
2022-08-30T17:52:46.344Z,41.48
2022-08-30T17:55:13.602Z,41.55
2022-08-30T17:57:41.926Z,41.88
2022-08-30T18:00:12.052Z,42.11
2022-08-30T18:02:42.401Z,42.40
2022-08-30T18:05:10.708Z,42.14
2022-08-30T18:07:37.268Z,42.51
2022-08-30T18:10:05.373Z,42.51
2022-08-30T18:12:33.855Z,42.61
2022-08-30T18:15:00.953Z,42.91
2022-08-30T18:17:28.389Z,43.34
2022-08-30T18:19:54.937Z,43.18
2022-08-30T18:22:24.087Z,43.92
2022-08-30T18:24:51.128Z,43.85
2022-08-30T18:27:17.923Z,44.17
2022-08-30T18:29:44.414Z,44.16
2022-08-30T18:32:11.474Z,44.60
2022-08-30T18:34:40.262Z,44.54
2022-08-30T18:37:11.484Z,44.60
2022-08-30T18:39:39.335Z,44.71
2022-08-30T18:42:08.094Z,44.59
2022-08-30T18:44:37.043Z,44.74
2022-08-30T18:47:05.641Z,44.80
2022-08-30T18:49:34.580Z,44.40
2022-08-30T18:52:02.958Z,45.21
2022-08-30T18:54:29.711Z,45.01
2022-08-30T18:56:56.364Z,45.18
2022-08-30T18:59:22.824Z,45.34
2022-08-30T19:02:02.290Z,45.01
2022-08-30T19:04:30.290Z,45.66
2022-08-30T19:07:03.971Z,45.55
2022-08-30T19:09:30.564Z,45.81
2022-08-30T19:11:57.082Z,45.84
2022-08-30T19:14:23.588Z,45.89
2022-08-30T19:16:54.769Z,46.44
2022-08-30T19:19:21.557Z,46.51
2022-08-30T19:21:48.385Z,46.51
2022-08-30T19:24:17.761Z,46.48
2022-08-30T19:26:46.679Z,46.94
2022-08-30T19:29:14.394Z,47.07
2022-08-30T19:31:41.714Z,47.35
2022-08-30T19:34:08.220Z,47.31
2022-08-30T19:36:34.641Z,47.48
2022-08-30T19:39:01.066Z,47.80
2022-08-30T19:41:28.286Z,47.74
2022-08-30T19:43:54.733Z,47.88
2022-08-30T19:46:21.167Z,48.26
2022-08-30T19:48:47.600Z,48.12
2022-08-30T19:51:14.882Z,48.31
2022-08-30T19:53:42.755Z,48.64
2022-08-30T19:56:09.190Z,48.34
2022-08-30T19:58:36.034Z,48.59
2022-08-30T20:01:10.526Z,49.17
2022-08-30T20:03:39.882Z,49.10
2022-08-30T20:06:07.101Z,49.38
2022-08-30T20:08:33.613Z,49.83
2022-08-30T20:11:00.482Z,49.91
2022-08-30T20:13:27.946Z,49.61
2022-08-30T20:15:56.514Z,50.73
2022-08-30T20:18:25.920Z,50.45
2022-08-30T20:20:53.488Z,50.30
2022-08-30T20:23:22.808Z,50.77
2022-08-30T20:25:52.354Z,50.48
2022-08-30T20:31:16.915Z,50.96
2022-08-30T20:33:43.420Z,51.30
2022-08-30T20:36:11.245Z,51.06
2022-08-30T20:38:39.026Z,51.31
2022-08-30T20:41:11.829Z,51.19
2022-08-30T20:43:38.963Z,51.20
2022-08-30T20:46:15.448Z,51.58
2022-08-30T20:48:43.309Z,51.89
2022-08-30T20:51:15.535Z,52.36
2022-08-30T20:53:42.750Z,52.82
2022-08-30T20:56:15.652Z,53.72
2022-08-30T20:58:42.892Z,54.02
2022-08-30T21:01:11.460Z,54.53
2022-08-30T21:03:39.268Z,54.39
2022-08-30T21:06:06.414Z,55.17
2022-08-30T21:08:33.133Z,54.77
2022-08-30T21:10:59.646Z,54.11
2022-08-30T21:13:26.283Z,54.79
2022-08-30T21:15:54.804Z,54.74
2022-08-30T21:18:22.445Z,54.63
2022-08-30T21:20:48.996Z,54.21
2022-08-30T21:23:15.441Z,54.81
2022-08-30T21:25:43.240Z,55.42
2022-08-30T21:28:10.045Z,54.63
2022-08-30T21:30:37.120Z,55.35
2022-08-30T21:33:05.332Z,56.68
2022-08-30T21:35:50.526Z,56.84
2022-08-30T21:38:17.625Z,56.50
2022-08-30T21:40:44.539Z,56.57
2022-08-30T21:43:11.751Z,57.34
2022-08-30T21:45:39.568Z,57.26
2022-08-30T21:48:06.261Z,57.06
2022-08-30T21:50:33.352Z,57.04
2022-08-30T21:53:00.637Z,57.46
2022-08-30T21:55:27.109Z,57.71
2022-08-30T21:57:56.628Z,57.51
2022-08-30T22:00:23.151Z,57.43
2022-08-30T22:02:53.319Z,57.16
2022-08-30T22:05:20.224Z,57.47
2022-08-30T22:07:46.685Z,57.82
2022-08-30T22:10:13.152Z,57.61
2022-08-30T22:12:39.608Z,57.81
2022-08-30T22:15:08.944Z,57.96
2022-08-30T22:17:35.350Z,58.00
2022-08-30T22:20:01.791Z,58.04
2022-08-30T22:22:28.182Z,58.26
2022-08-30T22:24:54.648Z,58.06
2022-08-30T22:27:21.356Z,58.39
2022-08-30T22:29:47.900Z,58.25
2022-08-30T22:32:14.406Z,58.63
2022-08-30T22:34:40.908Z,58.88
2022-08-30T22:37:07.875Z,58.56
2022-08-30T22:39:34.308Z,58.78
2022-08-30T22:42:00.763Z,59.21
2022-08-30T22:44:27.271Z,59.90
2022-08-30T22:46:53.732Z,59.42
2022-08-30T22:49:20.551Z,59.63
2022-08-30T22:51:46.985Z,60.00
2022-08-30T22:54:13.442Z,60.12
2022-08-30T22:56:40.258Z,59.72
2022-08-30T22:59:07.104Z,60.01
2022-08-30T23:01:37.728Z,60.24
2022-08-30T23:04:07.485Z,60.18
2022-08-30T23:06:34.289Z,60.20
2022-08-30T23:09:00.953Z,60.22
2022-08-30T23:11:27.571Z,60.64
2022-08-30T23:13:55.968Z,60.65
2022-08-30T23:16:23.017Z,60.82
2022-08-30T23:18:49.851Z,60.88
2022-08-30T23:21:23.270Z,62.21
2022-08-30T23:24:10.257Z,62.12
2022-08-30T23:26:56.082Z,62.20
2022-08-30T23:29:41.405Z,63.79
2022-08-30T23:32:26.769Z,64.15
2022-08-30T23:35:11.739Z,63.85
2022-08-30T23:37:56.910Z,62.70
2022-08-30T23:40:42.358Z,63.31
2022-08-30T23:43:28.092Z,63.96
2022-08-30T23:46:17.036Z,64.05
2022-08-30T23:49:08.571Z,65.16
2022-08-30T23:51:55.998Z,64.70
2022-08-30T23:54:41.872Z,65.44
2022-08-30T23:57:27.226Z,65.53
